sensor_id;sensor_type;location;lat;lon;timestamp;temperature;humidity
23063;DHT22;11699;43.704;10.430;2023-05-29T00:00:24;19.70;99.90
23063;DHT22;11699;43.704;10.430;2023-05-29T00:02:52;19.70;99.90
23063;DHT22;11699;43.704;10.430;2023-05-29T00:05:19;19.70;99.90
23063;DHT22;11699;43.704;10.430;2023-05-29T00:07:47;19.60;99.90
23063;DHT22;11699;43.704;10.430;2023-05-29T00:10:15;19.60;99.90
23063;DHT22;11699;43.704;10.430;2023-05-29T00:12:43;19.60;99.90
23063;DHT22;11699;43.704;10.430;2023-05-29T00:15:11;19.70;99.90
23063;DHT22;11699;43.704;10.430;2023-05-29T00:17:38;19.70;99.90
23063;DHT22;11699;43.704;10.430;2023-05-29T00:20:07;19.70;99.90
23063;DHT22;11699;43.704;10.430;2023-05-29T00:22:36;19.70;99.90
23063;DHT22;11699;43.704;10.430;2023-05-29T00:25:04;19.70;99.90
23063;DHT22;11699;43.704;10.430;2023-05-29T00:27:32;19.80;99.90
23063;DHT22;11699;43.704;10.430;2023-05-29T00:30:02;19.80;99.90
23063;DHT22;11699;43.704;10.430;2023-05-29T00:32:30;20.00;99.90
23063;DHT22;11699;43.704;10.430;2023-05-29T00:34:57;20.10;99.90
23063;DHT22;11699;43.704;10.430;2023-05-29T00:37:24;20.10;99.90
23063;DHT22;11699;43.704;10.430;2023-05-29T00:39:51;19.70;99.90
23063;DHT22;11699;43.704;10.430;2023-05-29T00:42:18;19.40;99.90
23063;DHT22;11699;43.704;10.430;2023-05-29T00:44:45;19.20;99.90
23063;DHT22;11699;43.704;10.430;2023-05-29T00:47:14;18.90;99.90
23063;DHT22;11699;43.704;10.430;2023-05-29T00:49:42;18.90;99.90
23063;DHT22;11699;43.704;10.430;2023-05-29T00:52:10;18.90;99.90
23063;DHT22;11699;43.704;10.430;2023-05-29T00:54:37;19.00;99.90
23063;DHT22;11699;43.704;10.430;2023-05-29T00:57:05;19.20;99.90
23063;DHT22;11699;43.704;10.430;2023-05-29T00:59:33;19.40;99.90
23063;DHT22;11699;43.704;10.430;2023-05-29T01:02:02;19.50;99.90
23063;DHT22;11699;43.704;10.430;2023-05-29T01:04:31;19.50;99.90
23063;DHT22;11699;43.704;10.430;2023-05-29T01:07:00;19.50;99.90
23063;DHT22;11699;43.704;10.430;2023-05-29T01:09:28;19.60;99.90
23063;DHT22;11699;43.704;10.430;2023-05-29T01:12:00;19.40;99.90
23063;DHT22;11699;43.704;10.430;2023-05-29T01:14:38;19.50;99.90
23063;DHT22;11699;43.704;10.430;2023-05-29T01:17:18;19.50;99.90
23063;DHT22;11699;43.704;10.430;2023-05-29T01:20:07;19.40;99.90
23063;DHT22;11699;43.704;10.430;2023-05-29T01:22:58;19.50;99.90
23063;DHT22;11699;43.704;10.430;2023-05-29T01:25:35;19.50;99.90
23063;DHT22;11699;43.704;10.430;2023-05-29T01:28:07;19.30;99.90
23063;DHT22;11699;43.704;10.430;2023-05-29T01:30:37;19.20;99.90
23063;DHT22;11699;43.704;10.430;2023-05-29T01:33:06;19.10;99.90
23063;DHT22;11699;43.704;10.430;2023-05-29T01:35:34;19.10;99.90
23063;DHT22;11699;43.704;10.430;2023-05-29T01:38:02;19.10;99.90
23063;DHT22;11699;43.704;10.430;2023-05-29T01:40:29;19.00;99.90
23063;DHT22;11699;43.704;10.430;2023-05-29T01:42:56;19.10;99.90
23063;DHT22;11699;43.704;10.430;2023-05-29T01:45:26;19.10;99.90
23063;DHT22;11699;43.704;10.430;2023-05-29T01:47:54;19.10;99.90
23063;DHT22;11699;43.704;10.430;2023-05-29T01:50:22;19.00;99.90
23063;DHT22;11699;43.704;10.430;2023-05-29T01:52:50;19.10;99.90
23063;DHT22;11699;43.704;10.430;2023-05-29T01:55:17;19.10;99.90
23063;DHT22;11699;43.704;10.430;2023-05-29T01:57:45;19.20;99.90
23063;DHT22;11699;43.704;10.430;2023-05-29T02:00:14;19.20;99.90
23063;DHT22;11699;43.704;10.430;2023-05-29T02:02:44;19.20;99.90
23063;DHT22;11699;43.704;10.430;2023-05-29T02:05:11;19.30;99.90
23063;DHT22;11699;43.704;10.430;2023-05-29T02:07:38;19.20;99.90
23063;DHT22;11699;43.704;10.430;2023-05-29T02:10:07;19.30;99.90
23063;DHT22;11699;43.704;10.430;2023-05-29T02:12:34;19.30;99.90
23063;DHT22;11699;43.704;10.430;2023-05-29T02:15:01;19.40;99.90
23063;DHT22;11699;43.704;10.430;2023-05-29T02:17:29;19.30;99.90
23063;DHT22;11699;43.704;10.430;2023-05-29T02:19:58;19.30;99.90
23063;DHT22;11699;43.704;10.430;2023-05-29T02:22:25;19.20;99.90
23063;DHT22;11699;43.704;10.430;2023-05-29T02:24:53;19.10;99.90
23063;DHT22;11699;43.704;10.430;2023-05-29T02:27:20;19.10;99.90
23063;DHT22;11699;43.704;10.430;2023-05-29T02:29:48;19.10;99.90
23063;DHT22;11699;43.704;10.430;2023-05-29T02:32:15;18.90;99.90
23063;DHT22;11699;43.704;10.430;2023-05-29T02:34:42;18.90;99.90
23063;DHT22;11699;43.704;10.430;2023-05-29T02:37:11;18.90;99.90
23063;DHT22;11699;43.704;10.430;2023-05-29T02:39:39;18.80;99.90
23063;DHT22;11699;43.704;10.430;2023-05-29T02:42:06;18.70;99.90
23063;DHT22;11699;43.704;10.430;2023-05-29T02:44:33;18.70;99.90
23063;DHT22;11699;43.704;10.430;2023-05-29T02:47:00;18.70;99.90
23063;DHT22;11699;43.704;10.430;2023-05-29T02:49:28;18.70;99.90
23063;DHT22;11699;43.704;10.430;2023-05-29T02:51:55;18.60;99.90
23063;DHT22;11699;43.704;10.430;2023-05-29T02:54:24;18.50;99.90
23063;DHT22;11699;43.704;10.430;2023-05-29T02:56:52;18.50;99.90
23063;DHT22;11699;43.704;10.430;2023-05-29T02:59:19;18.60;99.90
23063;DHT22;11699;43.704;10.430;2023-05-29T03:01:46;18.60;99.90
23063;DHT22;11699;43.704;10.430;2023-05-29T03:04:14;18.60;99.90
23063;DHT22;11699;43.704;10.430;2023-05-29T03:06:43;18.60;99.90
23063;DHT22;11699;43.704;10.430;2023-05-29T03:09:11;18.60;99.90
23063;DHT22;11699;43.704;10.430;2023-05-29T03:11:40;18.50;99.90
23063;DHT22;11699;43.704;10.430;2023-05-29T03:14:07;18.40;99.90
23063;DHT22;11699;43.704;10.430;2023-05-29T03:16:35;18.40;99.90
23063;DHT22;11699;43.704;10.430;2023-05-29T03:19:04;18.40;99.90
23063;DHT22;11699;43.704;10.430;2023-05-29T03:21:31;18.50;99.90
23063;DHT22;11699;43.704;10.430;2023-05-29T03:23:58;18.50;99.90
23063;DHT22;11699;43.704;10.430;2023-05-29T03:26:26;18.40;99.90
23063;DHT22;11699;43.704;10.430;2023-05-29T03:28:55;18.30;99.90
23063;DHT22;11699;43.704;10.430;2023-05-29T03:31:22;18.30;99.90
23063;DHT22;11699;43.704;10.430;2023-05-29T03:33:49;18.30;99.90
23063;DHT22;11699;43.704;10.430;2023-05-29T03:36:16;18.10;99.90
23063;DHT22;11699;43.704;10.430;2023-05-29T03:38:44;18.10;99.90
23063;DHT22;11699;43.704;10.430;2023-05-29T03:41:11;18.20;99.90
23063;DHT22;11699;43.704;10.430;2023-05-29T03:43:38;18.20;99.90
23063;DHT22;11699;43.704;10.430;2023-05-29T03:46:07;18.20;99.90
23063;DHT22;11699;43.704;10.430;2023-05-29T03:48:34;18.10;99.90
23063;DHT22;11699;43.704;10.430;2023-05-29T03:51:01;18.00;99.90
23063;DHT22;11699;43.704;10.430;2023-05-29T03:53:29;18.00;99.90
23063;DHT22;11699;43.704;10.430;2023-05-29T03:55:56;17.90;99.90
23063;DHT22;11699;43.704;10.430;2023-05-29T03:58:24;17.90;99.90
23063;DHT22;11699;43.704;10.430;2023-05-29T04:00:51;17.90;99.90
23063;DHT22;11699;43.704;10.430;2023-05-29T04:03:20;17.80;99.90
23063;DHT22;11699;43.704;10.430;2023-05-29T04:05:48;18.00;99.90
23063;DHT22;11699;43.704;10.430;2023-05-29T04:08:15;17.90;99.90
23063;DHT22;11699;43.704;10.430;2023-05-29T04:10:42;17.80;99.90
23063;DHT22;11699;43.704;10.430;2023-05-29T04:13:10;17.90;99.90
23063;DHT22;11699;43.704;10.430;2023-05-29T04:15:37;17.80;99.90
23063;DHT22;11699;43.704;10.430;2023-05-29T04:18:05;17.80;99.90
23063;DHT22;11699;43.704;10.430;2023-05-29T04:20:33;17.90;99.90
23063;DHT22;11699;43.704;10.430;2023-05-29T04:23:00;17.90;99.90
23063;DHT22;11699;43.704;10.430;2023-05-29T04:25:28;17.80;99.90
23063;DHT22;11699;43.704;10.430;2023-05-29T04:27:55;17.80;99.90
23063;DHT22;11699;43.704;10.430;2023-05-29T04:30:22;17.80;99.90
23063;DHT22;11699;43.704;10.430;2023-05-29T04:32:49;17.80;99.90
23063;DHT22;11699;43.704;10.430;2023-05-29T04:35:18;17.80;99.90
23063;DHT22;11699;43.704;10.430;2023-05-29T04:37:46;17.80;99.90
23063;DHT22;11699;43.704;10.430;2023-05-29T04:40:13;17.80;99.90
23063;DHT22;11699;43.704;10.430;2023-05-29T04:42:43;17.90;99.90
23063;DHT22;11699;43.704;10.430;2023-05-29T04:45:11;18.00;99.90
23063;DHT22;11699;43.704;10.430;2023-05-29T04:47:38;18.00;99.90
23063;DHT22;11699;43.704;10.430;2023-05-29T04:50:10;18.00;99.90
23063;DHT22;11699;43.704;10.430;2023-05-29T04:52:38;18.00;99.90
23063;DHT22;11699;43.704;10.430;2023-05-29T04:55:07;18.00;99.90
23063;DHT22;11699;43.704;10.430;2023-05-29T04:57:34;18.10;99.90
23063;DHT22;11699;43.704;10.430;2023-05-29T05:00:01;18.20;99.90
23063;DHT22;11699;43.704;10.430;2023-05-29T05:02:31;18.30;99.90
23063;DHT22;11699;43.704;10.430;2023-05-29T05:04:58;18.40;99.90
23063;DHT22;11699;43.704;10.430;2023-05-29T05:07:25;18.40;99.90
23063;DHT22;11699;43.704;10.430;2023-05-29T05:09:52;18.50;99.90
23063;DHT22;11699;43.704;10.430;2023-05-29T05:12:21;18.60;99.90
23063;DHT22;11699;43.704;10.430;2023-05-29T05:14:48;18.60;99.90
23063;DHT22;11699;43.704;10.430;2023-05-29T05:17:15;18.70;99.90
23063;DHT22;11699;43.704;10.430;2023-05-29T05:19:42;18.80;99.90
23063;DHT22;11699;43.704;10.430;2023-05-29T05:22:10;18.80;99.90
23063;DHT22;11699;43.704;10.430;2023-05-29T05:24:37;18.90;99.90
23063;DHT22;11699;43.704;10.430;2023-05-29T05:27:04;18.90;99.90
23063;DHT22;11699;43.704;10.430;2023-05-29T05:29:33;19.00;99.90
23063;DHT22;11699;43.704;10.430;2023-05-29T05:32:00;19.10;99.90
23063;DHT22;11699;43.704;10.430;2023-05-29T05:34:28;19.20;99.90
23063;DHT22;11699;43.704;10.430;2023-05-29T05:36:55;19.30;99.90
23063;DHT22;11699;43.704;10.430;2023-05-29T05:39:22;19.40;99.90
23063;DHT22;11699;43.704;10.430;2023-05-29T05:41:50;19.50;99.90
23063;DHT22;11699;43.704;10.430;2023-05-29T05:44:17;19.60;99.90
23063;DHT22;11699;43.704;10.430;2023-05-29T05:46:46;19.70;99.90
23063;DHT22;11699;43.704;10.430;2023-05-29T05:49:13;19.80;99.90
23063;DHT22;11699;43.704;10.430;2023-05-29T05:51:40;20.00;99.90
23063;DHT22;11699;43.704;10.430;2023-05-29T05:54:08;20.10;99.90
23063;DHT22;11699;43.704;10.430;2023-05-29T05:56:36;20.30;99.90
23063;DHT22;11699;43.704;10.430;2023-05-29T05:59:03;20.50;99.90
23063;DHT22;11699;43.704;10.430;2023-05-29T06:01:31;20.60;99.90
23063;DHT22;11699;43.704;10.430;2023-05-29T06:04:00;20.80;99.90
23063;DHT22;11699;43.704;10.430;2023-05-29T06:06:27;20.90;99.90
23063;DHT22;11699;43.704;10.430;2023-05-29T06:08:57;21.10;99.90
23063;DHT22;11699;43.704;10.430;2023-05-29T06:11:24;21.20;99.90
23063;DHT22;11699;43.704;10.430;2023-05-29T06:13:53;21.30;99.90
23063;DHT22;11699;43.704;10.430;2023-05-29T06:16:20;21.40;99.90
23063;DHT22;11699;43.704;10.430;2023-05-29T06:18:47;21.50;99.90
23063;DHT22;11699;43.704;10.430;2023-05-29T06:21:16;21.80;99.90
23063;DHT22;11699;43.704;10.430;2023-05-29T06:23:43;22.00;99.90
23063;DHT22;11699;43.704;10.430;2023-05-29T06:26:11;22.10;99.90
23063;DHT22;11699;43.704;10.430;2023-05-29T06:28:39;22.20;99.90
23063;DHT22;11699;43.704;10.430;2023-05-29T06:31:06;22.40;99.90
23063;DHT22;11699;43.704;10.430;2023-05-29T06:33:33;22.40;99.90
23063;DHT22;11699;43.704;10.430;2023-05-29T06:36:01;22.30;99.90
23063;DHT22;11699;43.704;10.430;2023-05-29T06:38:29;22.30;99.90
23063;DHT22;11699;43.704;10.430;2023-05-29T06:40:57;22.30;99.90
23063;DHT22;11699;43.704;10.430;2023-05-29T06:43:25;22.30;99.90
23063;DHT22;11699;43.704;10.430;2023-05-29T06:45:53;22.40;99.90
23063;DHT22;11699;43.704;10.430;2023-05-29T06:48:20;22.50;99.90
23063;DHT22;11699;43.704;10.430;2023-05-29T06:50:48;22.80;99.90
23063;DHT22;11699;43.704;10.430;2023-05-29T06:53:15;23.30;99.90
23063;DHT22;11699;43.704;10.430;2023-05-29T06:55:44;24.00;99.90
23063;DHT22;11699;43.704;10.430;2023-05-29T06:58:11;24.70;99.90
23063;DHT22;11699;43.704;10.430;2023-05-29T07:00:38;25.90;99.90
23063;DHT22;11699;43.704;10.430;2023-05-29T07:03:05;26.70;99.90
23063;DHT22;11699;43.704;10.430;2023-05-29T07:05:32;27.60;99.90
23063;DHT22;11699;43.704;10.430;2023-05-29T07:08:00;28.30;99.90
23063;DHT22;11699;43.704;10.430;2023-05-29T07:10:27;28.70;99.90
23063;DHT22;11699;43.704;10.430;2023-05-29T07:12:56;28.80;99.90
23063;DHT22;11699;43.704;10.430;2023-05-29T07:15:23;29.30;99.90
23063;DHT22;11699;43.704;10.430;2023-05-29T07:17:50;29.90;99.90
23063;DHT22;11699;43.704;10.430;2023-05-29T07:20:18;30.30;99.90
23063;DHT22;11699;43.704;10.430;2023-05-29T07:22:46;30.70;99.90
23063;DHT22;11699;43.704;10.430;2023-05-29T07:25:13;31.00;99.90
23063;DHT22;11699;43.704;10.430;2023-05-29T07:27:40;30.50;99.90
23063;DHT22;11699;43.704;10.430;2023-05-29T07:30:10;30.60;99.90
23063;DHT22;11699;43.704;10.430;2023-05-29T07:32:37;30.50;99.90
23063;DHT22;11699;43.704;10.430;2023-05-29T07:35:05;30.40;99.90
23063;DHT22;11699;43.704;10.430;2023-05-29T07:37:33;30.30;99.90
23063;DHT22;11699;43.704;10.430;2023-05-29T07:40:01;30.60;99.90
23063;DHT22;11699;43.704;10.430;2023-05-29T07:42:30;31.40;99.90
23063;DHT22;11699;43.704;10.430;2023-05-29T07:44:57;31.40;99.90
23063;DHT22;11699;43.704;10.430;2023-05-29T07:47:26;31.30;99.90
23063;DHT22;11699;43.704;10.430;2023-05-29T07:49:53;31.00;99.90
23063;DHT22;11699;43.704;10.430;2023-05-29T07:52:21;30.50;99.90
23063;DHT22;11699;43.704;10.430;2023-05-29T07:54:48;30.80;99.90
23063;DHT22;11699;43.704;10.430;2023-05-29T07:57:15;31.50;99.70
23063;DHT22;11699;43.704;10.430;2023-05-29T07:59:43;31.80;99.90
23063;DHT22;11699;43.704;10.430;2023-05-29T08:02:10;31.90;99.90
23063;DHT22;11699;43.704;10.430;2023-05-29T08:04:39;31.90;98.50
23063;DHT22;11699;43.704;10.430;2023-05-29T08:07:06;31.70;99.50
23063;DHT22;11699;43.704;10.430;2023-05-29T08:09:35;31.70;99.20
23063;DHT22;11699;43.704;10.430;2023-05-29T08:12:02;31.20;98.60
23063;DHT22;11699;43.704;10.430;2023-05-29T08:14:30;31.90;98.50
23063;DHT22;11699;43.704;10.430;2023-05-29T08:16:57;32.00;98.20
23063;DHT22;11699;43.704;10.430;2023-05-29T08:19:24;32.20;98.30
23063;DHT22;11699;43.704;10.430;2023-05-29T08:21:53;32.30;98.60
23063;DHT22;11699;43.704;10.430;2023-05-29T08:24:20;32.50;98.90
23063;DHT22;11699;43.704;10.430;2023-05-29T08:26:47;33.00;98.50
23063;DHT22;11699;43.704;10.430;2023-05-29T08:29:15;32.70;98.00
23063;DHT22;11699;43.704;10.430;2023-05-29T08:31:42;33.00;97.90
23063;DHT22;11699;43.704;10.430;2023-05-29T08:34:09;33.10;97.90
23063;DHT22;11699;43.704;10.430;2023-05-29T08:36:37;33.20;97.00
23063;DHT22;11699;43.704;10.430;2023-05-29T08:39:08;33.70;97.70
23063;DHT22;11699;43.704;10.430;2023-05-29T08:41:51;34.00;97.90
23063;DHT22;11699;43.704;10.430;2023-05-29T08:44:23;34.50;96.50
23063;DHT22;11699;43.704;10.430;2023-05-29T08:46:54;34.50;97.40
23063;DHT22;11699;43.704;10.430;2023-05-29T08:49:22;33.90;96.30
23063;DHT22;11699;43.704;10.430;2023-05-29T08:52:00;32.90;96.90
23063;DHT22;11699;43.704;10.430;2023-05-29T08:54:31;33.10;97.70
23063;DHT22;11699;43.704;10.430;2023-05-29T08:57:00;34.00;96.70
23063;DHT22;11699;43.704;10.430;2023-05-29T08:59:30;33.80;96.50
23063;DHT22;11699;43.704;10.430;2023-05-29T09:01:58;33.40;97.40
23063;DHT22;11699;43.704;10.430;2023-05-29T09:04:25;33.30;97.50
23063;DHT22;11699;43.704;10.430;2023-05-29T09:06:52;33.50;97.80
23063;DHT22;11699;43.704;10.430;2023-05-29T09:09:21;33.20;96.60
23063;DHT22;11699;43.704;10.430;2023-05-29T09:11:51;33.10;96.00
23063;DHT22;11699;43.704;10.430;2023-05-29T09:14:35;33.10;97.80
23063;DHT22;11699;43.704;10.430;2023-05-29T09:17:04;33.10;97.70
23063;DHT22;11699;43.704;10.430;2023-05-29T09:19:32;33.20;97.10
23063;DHT22;11699;43.704;10.430;2023-05-29T09:22:03;33.40;98.20
23063;DHT22;11699;43.704;10.430;2023-05-29T09:24:32;33.10;96.90
23063;DHT22;11699;43.704;10.430;2023-05-29T09:27:01;32.60;98.10
23063;DHT22;11699;43.704;10.430;2023-05-29T09:29:31;32.80;98.40
23063;DHT22;11699;43.704;10.430;2023-05-29T09:31:59;32.80;97.80
23063;DHT22;11699;43.704;10.430;2023-05-29T09:34:26;33.40;98.40
23063;DHT22;11699;43.704;10.430;2023-05-29T09:37:01;33.30;97.30
23063;DHT22;11699;43.704;10.430;2023-05-29T09:39:34;33.30;98.90
23063;DHT22;11699;43.704;10.430;2023-05-29T09:42:09;33.50;96.90
23063;DHT22;11699;43.704;10.430;2023-05-29T09:44:37;33.10;98.10
23063;DHT22;11699;43.704;10.430;2023-05-29T09:47:04;32.80;97.00
23063;DHT22;11699;43.704;10.430;2023-05-29T09:49:32;32.70;97.10
23063;DHT22;11699;43.704;10.430;2023-05-29T09:52:00;31.70;97.20
23063;DHT22;11699;43.704;10.430;2023-05-29T09:54:28;31.00;98.40
23063;DHT22;11699;43.704;10.430;2023-05-29T09:56:56;30.40;97.40
23063;DHT22;11699;43.704;10.430;2023-05-29T09:59:28;30.20;99.00
23063;DHT22;11699;43.704;10.430;2023-05-29T10:02:00;30.70;98.90
23063;DHT22;11699;43.704;10.430;2023-05-29T10:04:30;31.00;99.10
23063;DHT22;11699;43.704;10.430;2023-05-29T10:07:03;31.20;98.70
23063;DHT22;11699;43.704;10.430;2023-05-29T10:09:33;31.40;98.70
23063;DHT22;11699;43.704;10.430;2023-05-29T10:12:03;30.90;98.50
23063;DHT22;11699;43.704;10.430;2023-05-29T10:14:35;30.70;98.80
23063;DHT22;11699;43.704;10.430;2023-05-29T10:17:06;30.70;98.40
23063;DHT22;11699;43.704;10.430;2023-05-29T10:19:36;30.20;98.20
23063;DHT22;11699;43.704;10.430;2023-05-29T10:22:05;29.40;98.80
23063;DHT22;11699;43.704;10.430;2023-05-29T10:24:33;28.80;99.50
23063;DHT22;11699;43.704;10.430;2023-05-29T10:27:03;28.80;99.90
23063;DHT22;11699;43.704;10.430;2023-05-29T10:29:37;29.00;99.90
23063;DHT22;11699;43.704;10.430;2023-05-29T10:32:16;29.90;99.70
23063;DHT22;11699;43.704;10.430;2023-05-29T10:34:50;29.70;98.70
23063;DHT22;11699;43.704;10.430;2023-05-29T10:37:31;29.40;98.90
23063;DHT22;11699;43.704;10.430;2023-05-29T10:40:06;29.20;99.80
23063;DHT22;11699;43.704;10.430;2023-05-29T10:42:44;29.10;99.90
23063;DHT22;11699;43.704;10.430;2023-05-29T10:48:36;28.80;99.70
23063;DHT22;11699;43.704;10.430;2023-05-29T10:51:06;29.40;99.90
23063;DHT22;11699;43.704;10.430;2023-05-29T10:53:34;29.70;99.90
23063;DHT22;11699;43.704;10.430;2023-05-29T10:56:09;29.60;99.70
23063;DHT22;11699;43.704;10.430;2023-05-29T10:58:41;29.30;99.90
23063;DHT22;11699;43.704;10.430;2023-05-29T11:01:10;29.30;99.90
23063;DHT22;11699;43.704;10.430;2023-05-29T11:03:37;29.50;99.90
23063;DHT22;11699;43.704;10.430;2023-05-29T11:06:06;29.90;99.90
23063;DHT22;11699;43.704;10.430;2023-05-29T11:08:34;29.90;99.90
23063;DHT22;11699;43.704;10.430;2023-05-29T11:11:03;29.90;99.90
23063;DHT22;11699;43.704;10.430;2023-05-29T11:13:33;30.10;99.90
23063;DHT22;11699;43.704;10.430;2023-05-29T11:16:35;30.00;99.50
23063;DHT22;11699;43.704;10.430;2023-05-29T11:19:04;30.20;99.90
23063;DHT22;11699;43.704;10.430;2023-05-29T11:21:37;30.90;99.90
23063;DHT22;11699;43.704;10.430;2023-05-29T11:24:06;31.20;99.30
23063;DHT22;11699;43.704;10.430;2023-05-29T11:26:35;31.20;98.70
23063;DHT22;11699;43.704;10.430;2023-05-29T11:29:04;30.70;98.20
23063;DHT22;11699;43.704;10.430;2023-05-29T11:31:34;30.50;99.00
23063;DHT22;11699;43.704;10.430;2023-05-29T11:34:03;30.20;98.80
23063;DHT22;11699;43.704;10.430;2023-05-29T11:36:32;30.00;99.50
23063;DHT22;11699;43.704;10.430;2023-05-29T11:39:00;30.20;99.30
23063;DHT22;11699;43.704;10.430;2023-05-29T11:41:29;30.60;99.40
23063;DHT22;11699;43.704;10.430;2023-05-29T11:43:57;31.20;99.40
23063;DHT22;11699;43.704;10.430;2023-05-29T11:46:25;31.50;98.80
23063;DHT22;11699;43.704;10.430;2023-05-29T11:48:55;31.70;98.40
23063;DHT22;11699;43.704;10.430;2023-05-29T11:51:22;32.10;98.50
23063;DHT22;11699;43.704;10.430;2023-05-29T11:53:50;31.70;98.10
23063;DHT22;11699;43.704;10.430;2023-05-29T11:56:23;31.20;97.90
23063;DHT22;11699;43.704;10.430;2023-05-29T11:58:51;30.90;98.80
23063;DHT22;11699;43.704;10.430;2023-05-29T12:01:21;30.60;98.80
23063;DHT22;11699;43.704;10.430;2023-05-29T12:03:49;30.50;99.90
23063;DHT22;11699;43.704;10.430;2023-05-29T12:06:30;30.70;99.50
23063;DHT22;11699;43.704;10.430;2023-05-29T12:08:58;31.10;98.80
23063;DHT22;11699;43.704;10.430;2023-05-29T12:11:25;31.10;98.80
23063;DHT22;11699;43.704;10.430;2023-05-29T12:13:56;31.40;98.70
23063;DHT22;11699;43.704;10.430;2023-05-29T12:16:24;31.70;98.70
23063;DHT22;11699;43.704;10.430;2023-05-29T12:18:52;31.40;98.40
23063;DHT22;11699;43.704;10.430;2023-05-29T12:21:21;31.20;99.90
23063;DHT22;11699;43.704;10.430;2023-05-29T12:23:52;31.60;99.30
23063;DHT22;11699;43.704;10.430;2023-05-29T12:26:22;31.50;98.80
23063;DHT22;11699;43.704;10.430;2023-05-29T12:28:50;30.90;98.90
23063;DHT22;11699;43.704;10.430;2023-05-29T12:31:26;30.70;98.90
23063;DHT22;11699;43.704;10.430;2023-05-29T12:33:59;30.90;99.90
23063;DHT22;11699;43.704;10.430;2023-05-29T12:36:28;30.90;99.30
23063;DHT22;11699;43.704;10.430;2023-05-29T12:38:56;30.90;99.30
23063;DHT22;11699;43.704;10.430;2023-05-29T12:41:29;30.90;99.40
23063;DHT22;11699;43.704;10.430;2023-05-29T12:43:57;30.90;99.90
23063;DHT22;11699;43.704;10.430;2023-05-29T12:46:25;30.60;99.40
23063;DHT22;11699;43.704;10.430;2023-05-29T12:48:53;30.50;98.90
23063;DHT22;11699;43.704;10.430;2023-05-29T12:51:25;30.80;99.40
23063;DHT22;11699;43.704;10.430;2023-05-29T12:53:54;30.50;98.90
23063;DHT22;11699;43.704;10.430;2023-05-29T12:56:24;29.90;99.80
23063;DHT22;11699;43.704;10.430;2023-05-29T12:58:52;29.50;99.90
23063;DHT22;11699;43.704;10.430;2023-05-29T13:01:19;29.40;99.90
23063;DHT22;11699;43.704;10.430;2023-05-29T13:03:48;29.90;99.90
23063;DHT22;11699;43.704;10.430;2023-05-29T13:06:15;30.60;99.90
23063;DHT22;11699;43.704;10.430;2023-05-29T13:08:43;31.20;99.90
23063;DHT22;11699;43.704;10.430;2023-05-29T13:11:11;31.60;99.00
23063;DHT22;11699;43.704;10.430;2023-05-29T13:13:39;31.60;98.90
23063;DHT22;11699;43.704;10.430;2023-05-29T13:16:06;31.70;99.70
23063;DHT22;11699;43.704;10.430;2023-05-29T13:18:33;31.40;99.20
23063;DHT22;11699;43.704;10.430;2023-05-29T13:21:01;31.50;99.30
23063;DHT22;11699;43.704;10.430;2023-05-29T13:23:28;31.20;99.00
23063;DHT22;11699;43.704;10.430;2023-05-29T13:25:55;30.50;99.50
23063;DHT22;11699;43.704;10.430;2023-05-29T13:28:24;30.60;99.90
23063;DHT22;11699;43.704;10.430;2023-05-29T13:30:53;30.70;99.90
23063;DHT22;11699;43.704;10.430;2023-05-29T13:33:20;30.60;99.90
23063;DHT22;11699;43.704;10.430;2023-05-29T13:35:48;30.80;99.90
23063;DHT22;11699;43.704;10.430;2023-05-29T13:38:15;30.90;99.60
23063;DHT22;11699;43.704;10.430;2023-05-29T13:40:42;30.80;99.80
23063;DHT22;11699;43.704;10.430;2023-05-29T13:43:10;30.40;99.10
23063;DHT22;11699;43.704;10.430;2023-05-29T13:45:38;30.10;98.90
23063;DHT22;11699;43.704;10.430;2023-05-29T13:48:06;29.80;98.00
23063;DHT22;11699;43.704;10.430;2023-05-29T13:50:33;29.60;98.80
23063;DHT22;11699;43.704;10.430;2023-05-29T13:53:00;29.30;99.10
23063;DHT22;11699;43.704;10.430;2023-05-29T13:55:28;29.30;99.00
23063;DHT22;11699;43.704;10.430;2023-05-29T13:57:55;29.40;99.20
23063;DHT22;11699;43.704;10.430;2023-05-29T14:00:24;29.70;99.60
23063;DHT22;11699;43.704;10.430;2023-05-29T14:02:52;29.60;98.40
23063;DHT22;11699;43.704;10.430;2023-05-29T14:05:20;29.20;98.70
23063;DHT22;11699;43.704;10.430;2023-05-29T14:07:47;29.30;99.70
23063;DHT22;11699;43.704;10.430;2023-05-29T14:10:14;29.40;99.20
23063;DHT22;11699;43.704;10.430;2023-05-29T14:12:42;29.70;98.80
23063;DHT22;11699;43.704;10.430;2023-05-29T14:15:10;29.80;99.90
23063;DHT22;11699;43.704;10.430;2023-05-29T14:17:37;29.60;98.60
23063;DHT22;11699;43.704;10.430;2023-05-29T14:20:07;29.60;99.10
23063;DHT22;11699;43.704;10.430;2023-05-29T14:22:34;29.40;98.70
23063;DHT22;11699;43.704;10.430;2023-05-29T14:25:03;29.20;99.30
23063;DHT22;11699;43.704;10.430;2023-05-29T14:27:31;29.00;99.90
23063;DHT22;11699;43.704;10.430;2023-05-29T14:29:58;29.00;99.90
23063;DHT22;11699;43.704;10.430;2023-05-29T14:32:26;28.90;99.90
23063;DHT22;11699;43.704;10.430;2023-05-29T14:34:53;28.70;99.90
23063;DHT22;11699;43.704;10.430;2023-05-29T14:37:24;28.40;99.90
23063;DHT22;11699;43.704;10.430;2023-05-29T14:39:52;28.40;99.90
23063;DHT22;11699;43.704;10.430;2023-05-29T14:42:19;28.20;99.90
23063;DHT22;11699;43.704;10.430;2023-05-29T14:44:47;28.30;99.90
23063;DHT22;11699;43.704;10.430;2023-05-29T14:47:14;28.50;99.90
23063;DHT22;11699;43.704;10.430;2023-05-29T14:49:44;28.60;99.90
23063;DHT22;11699;43.704;10.430;2023-05-29T14:52:11;28.50;99.70
23063;DHT22;11699;43.704;10.430;2023-05-29T14:54:40;28.30;99.90
23063;DHT22;11699;43.704;10.430;2023-05-29T14:57:07;28.10;99.90
23063;DHT22;11699;43.704;10.430;2023-05-29T14:59:35;28.10;99.90
23063;DHT22;11699;43.704;10.430;2023-05-29T15:02:02;28.30;99.90
23063;DHT22;11699;43.704;10.430;2023-05-29T15:04:30;28.40;99.90
23063;DHT22;11699;43.704;10.430;2023-05-29T15:06:57;28.50;99.90
23063;DHT22;11699;43.704;10.430;2023-05-29T15:09:25;28.40;99.90
23063;DHT22;11699;43.704;10.430;2023-05-29T15:11:53;28.20;99.90
23063;DHT22;11699;43.704;10.430;2023-05-29T15:14:21;28.30;99.90
23063;DHT22;11699;43.704;10.430;2023-05-29T15:16:48;28.30;99.60
23063;DHT22;11699;43.704;10.430;2023-05-29T15:19:15;28.10;99.40
23063;DHT22;11699;43.704;10.430;2023-05-29T15:21:43;28.00;98.90
23063;DHT22;11699;43.704;10.430;2023-05-29T15:24:10;27.80;99.30
23063;DHT22;11699;43.704;10.430;2023-05-29T15:26:37;27.80;98.90